METAR Data
IDs: Format: Raw Decoded Include TAF

Data at: 0634 UTC 23 Feb 2019

PABA 230552Z AUTO 10011KT 10SM CLR M26/M28 A3027 RMK AO2 SLP235 60000 T12561278 11250 21256 58006 FZRANO TSNO
PABA 230452Z AUTO 10011KT 10SM CLR M25/M27 A3028 RMK AO2 SLP238 T12501272 FZRANO TSNO
PABA 230352Z AUTO 10012KT 10SM CLR M26/M28 A3029 RMK AO2 SNE0259 SLP241 P0000 T12561283 FZRANO TSNO
PABA 230252Z AUTO 09013KT 9SM -SN CLR M25/M27 A3029 RMK AO2 SNB48 SLP241 P0000 60000 T12501272 56011 FZRANO TSNO
PABA 230152Z AUTO 10SM CLR M26/M28 A3030 RMK AO2 SLP245 T12561278 FZRANO TSNO $
PABA 230052Z AUTO 09012KT 10SM CLR M26/M28 A3030 RMK AO2 SLP247 T12561283 FZRANO TSNO
PABA 222352Z AUTO 09011KT 10SM CLR M26/M28 A3032 RMK AO2 SNB29E39 SLP252 P0000 60000 T12611283 11261 21300 58008 FZRANO TSNO
PABA 222252Z AUTO 09010KT 10SM CLR M27/M29 A3033 RMK AO2 SLP257 T12671294 FZRANO TSNO
PABA 222152Z AUTO 08012KT 10SM CLR M27/M29 A3034 RMK AO2 SNB2057E07 SLP258 P0000 T12721294 FZRANO TSNO
PABA 222052Z AUTO 08012KT 10SM CLR M27/M29 A3034 RMK AO2 SLP260 T12721294 58002 FZRANO TSNO
PABA 221952Z AUTO 08011KT 9SM CLR M28/M30 A3035 RMK AO2 SLP263 T12781300 FZRANO TSNO
PABA 221852Z AUTO 09011KT 10SM CLR M28/M31 A3035 RMK AO2 SLP264 T12831311 FZRANO TSNO
PABA 221752Z AUTO 09011KT 10SM CLR M30/M32 A3035 RMK AO2 SLP262 T13001322 11261 21300 50000 FZRANO TSNO
PABA 221652Z AUTO 09011KT 10SM CLR M29/M32 A3035 RMK AO2 SLP263 T12891317 FZRANO TSNO
PABA 221552Z AUTO 09011KT 10SM CLR M29/M32 A3036 RMK AO2 SLP264 T12891317 FZRANO TSNO
PABA 221452Z AUTO 10010KT 10SM CLR M29/M31 A3035 RMK AO2 SLP262 T12891311 51007 FZRANO TSNO
PABA 221352Z AUTO 09009KT 10SM CLR M29/M31 A3034 RMK AO2 SLP261 T12891311 FZRANO TSNO
PABA 221252Z AUTO 09010KT 10SM CLR M27/M29 A3034 RMK AO2 SLP258 T12721294 FZRANO TSNO
PABA 221152Z AUTO 08010KT 10SM CLR M26/M28 A3033 RMK AO2 SLP255 60000 T12611283 11189 21261 51015 FZRANO TSNO
PABA 221052Z AUTO 07008KT 10SM CLR M25/M27 A3032 RMK AO2 SLP251 T12501272 FZRANO TSNO
PABA 220952Z AUTO 05010KT 10SM CLR M24/M26 A3030 RMK AO2 SLP247 T12391256 FZRANO TSNO
PABA 220852Z AUTO 04011KT 10SM CLR M22/M24 A3028 RMK AO2 SLP240 60000 T12221244 411611233 53018 FZRANO TSNO
PABA 220752Z AUTO 04008KT 10SM OVC070 M21/M23 A3026 RMK AO2 SLP232 T12061228 FZRANO TSNO
PABA 220652Z AUTO 06008KT 10SM OVC070 M19/M22 A3025 RMK AO2 SNE42 SLP229 P0000 T11941217 FZRANO TSNO
PABA 220552Z AUTO 05009KT 9SM -SN OVC075 M19/M21 A3023 RMK AO2 SLP222 P0000 60000 T11891206 11167 21189 53016 FZRANO TSNO
PABA 220452Z AUTO 05009KT 9SM -SN OVC080 M18/M21 A3021 RMK AO2 SLP215 P0000 T11831206 FZRANO TSNO
PABA 220352Z AUTO 04009KT 8SM -SN BKN070 OVC085 M18/M20 A3020 RMK AO2 SLP212 P0000 T11781200 FZRANO TSNO
PABA 220332Z AUTO 04010KT 7SM -SN SCT029 OVC070 M17/M19 A3019 RMK AO2 P0000 FZRANO TSNO
PABA 220311Z AUTO 04010KT 4SM -SN BR BKN029 OVC034 M17/M19 A3019 RMK AO2 P0000 FZRANO TSNO
PABA 220252Z AUTO 04009KT 4SM -SN BR BKN029 BKN034 OVC047 M17/M19 A3018 RMK AO2 SLP205 P0000 60000 T11671189 53018 FZRANO TSNO
PABA 220245Z AUTO 04008KT 3SM -SN BR OVC029 M17/M19 A3018 RMK AO2 P0000 FZRANO TSNO
PABA 220223Z AUTO 06007KT 2SM -SN BR BKN029 OVC035 M17/M19 A3017 RMK AO2 VIS 1 1/2V3 P0000 FZRANO TSNO
PABA 220206Z AUTO 00000KT 1 1/2SM -SN BR SCT018 OVC027 M17/M19 A3016 RMK AO2 P0000 FZRANO TSNO
PABA 220202Z AUTO 00000KT 2SM -SN BR BKN018 OVC027 M17/M19 A3016 RMK AO2 P0000 FZRANO TSNO
PABA 220152Z AUTO 00000KT 4SM -SN BR OVC018 M17/M19 A3016 RMK AO2 SLP197 P0000 T11721194 FZRANO TSNO
PABA 220052Z AUTO 24004KT 4SM -SN BR OVC020 M17/M19 A3014 RMK AO2 SLP192 P0000 T11721189 FZRANO TSNO
PABA 212352Z AUTO 26004KT 7SM -SN OVC018 M17/M18 A3013 RMK AO2 SLP188 P0000 60000 T11671183 11161 21206 53013 FZRANO TSNO
PABA 212328Z AUTO 23005KT 4SM -SN BR BKN016 OVC021 M16/M18 A3012 RMK AO2 P0000 FZRANO TSNO
PABA 212252Z AUTO 25004KT 5SM -SN BR OVC012 M17/M18 A3011 RMK AO2 SLP181 P0000 T11671183 FZRANO TSNO
PABA 212152Z AUTO 24005KT 8SM -SN OVC010 M17/M19 A3010 RMK AO2 SLP179 P0000 T11721194 FZRANO TSNO
PABA 212124Z AUTO 24005KT 4SM -SN BR OVC010 M18/M19 A3010 RMK AO2 CIG 008V011 P0000 FZRANO TSNO
PABA 212112Z AUTO 24005KT 3SM -SN BR OVC008 M18/M19 A3009 RMK AO2 P0000 FZRANO TSNO
PABA 212108Z AUTO 25005KT 2 1/2SM -SN BR OVC008 M18/M19 A3009 RMK AO2 VIS 1 3/4V4 CIG 005V009 P0000 FZRANO TSNO
PABA 212052Z AUTO 25007KT 1 1/4SM -SN BR OVC006 M18/M20 A3009 RMK AO2 CIG 004V008 SLP175 P0000 60000 T11781200 53015 FZRANO TSNO
PABA 212027Z AUTO 25006KT 2SM -SN BR OVC004 M18/M21 A3008 RMK AO2 VIS 1 3/4V4 CIG 003V007 P0000 FZRANO TSNO
PABA 212019Z AUTO 25007KT 1 1/4SM -SN BR OVC004 M18/M21 A3008 RMK AO2 CIG 003V007 P0000 FZRANO TSNO
PABA 212016Z AUTO 25007KT 1SM -SN BR OVC004 M18/M21 A3008 RMK AO2 CIG 003V007 P0000 FZRANO TSNO
PABA 212012Z AUTO 25007KT 3/4SM -SN BR OVC004 M19/M21 A3008 RMK AO2 CIG 003V007 P0000 FZRANO TSNO
PABA 212003Z AUTO 25007KT 1/2SM -SN FZFG OVC004 M19/M21 A3007 RMK AO2 P0000 FZRANO TSNO
PABA 211952Z AUTO 25006KT 1/4SM -SN FZFG OVC004 M19/M21 A3007 RMK AO2 SLP169 P0000 T11891211 FZRANO TSNO
PABA 211930Z AUTO 25007KT 1/4SM -SN FZFG OVC004 M19/M22 A3007 RMK AO2 P0000 FZRANO TSNO
PABA 211920Z AUTO 25006KT 1/2SM -SN FZFG OVC004 M20/M22 A3006 RMK AO2 P0000 FZRANO TSNO
PABA 211915Z AUTO 25006KT 3/4SM -SN BR OVC004 M20/M22 A3006 RMK AO2 P0000 FZRANO TSNO
PABA 211911Z AUTO 26006KT 1 3/4SM -SN BR OVC004 M20/M22 A3007 RMK AO2 P0000 FZRANO TSNO
PABA 211852Z AUTO 26006KT 4SM -SN BR OVC004 M21/M23 A3006 RMK AO2 SLP166 P0000 T12061228 FZRANO TSNO